WetterOnline ( https://www.wetteronline.de )

Wetter aktuell Marnitz

Aktuelles Wetter: Marnitz (87m)

6-stündlich | Neueste Meldungen
Ortszeit Temperatur Wetter
So, 23.01. 1:00 4.9° C bedeckt
Sa, 22.01. 19:00 4.6° C bedeckt
Sa, 22.01. 13:00 4.0° C bedeckt
Sa, 22.01. 7:00 1.5° C wolkig
Sa, 22.01. 1:00 4.4° C Sprühregen
Fr, 21.01. 19:00 2.1° C bedeckt
Fr, 21.01. 13:00 1.8° C wolkenlos
Fr, 21.01. 7:00 -3.5° C leicht bewölkt
Ortszeit Temperatur Wetter
So, 23.01. 3:10 4.8° C bedeckt
So, 23.01. 3:00 4.8° C Sprühregen
So, 23.01. 2:50 4.8° C Sprühregen
So, 23.01. 2:40 4.9° C leichter Regen
So, 23.01. 2:30 4.8° C Sprühregen
So, 23.01. 2:20 4.8° C Sprühregen
So, 23.01. 2:00 4.8° C bewölkt
So, 23.01. 1:30 4.8° C bedeckt
So, 23.01. 1:00 4.9° C bedeckt
So, 23.01. 0:30 5.1° C bedeckt
Ortszeit Relative Feuchte Sichtweite
So, 23.01. 1:00 97% 35 km
Sa, 22.01. 19:00 99% 11 km
Sa, 22.01. 13:00 80% 45 km
Sa, 22.01. 7:00 98% 14 km
Sa, 22.01. 1:00 99% 3.4 km
Fr, 21.01. 19:00 87% 35 km
Fr, 21.01. 13:00 59% 65 km
Fr, 21.01. 7:00 80% 50 km
Ortszeit Relative Feuchte Sichtweite
So, 23.01. 3:10 98% -
So, 23.01. 3:00 98% 3.1 km
So, 23.01. 2:50 98% -
So, 23.01. 2:40 98% -
So, 23.01. 2:30 99% -
So, 23.01. 2:20 99% -
So, 23.01. 2:00 97% 6 km
So, 23.01. 1:30 97% 30 km
So, 23.01. 1:00 97% 35 km
So, 23.01. 0:30 95% 45 km
Ortszeit Niederschlagsmenge Niederschlagsart
So, 23.01. 1:00 0.8 l/m2 in 6 Std. Regen
Sa, 22.01. 19:00 0.2 l/m2 in 12 Std. Sprühregen
Sa, 22.01. 13:00 0.0 l/m2 in 6 Std. -
Sa, 22.01. 7:00 1 l/m2 in 12 Std. Regen
Sa, 22.01. 1:00 1 l/m2 in 6 Std. Regen
Fr, 21.01. 19:00 0.0 l/m2 in 12 Std. -
Fr, 21.01. 13:00 0.0 l/m2 in 6 Std. -
Fr, 21.01. 7:00 0.1 l/m2 in 12 Std. -
Ortszeit Niederschlagsmenge Niederschlagsart
So, 23.01. 3:10 keine Meldung -
So, 23.01. 3:00 0.3 l/m2 in 1 Std. Regen
So, 23.01. 2:50 keine Meldung -
So, 23.01. 2:40 keine Meldung -
So, 23.01. 2:30 0.1 l/m2 in 1 Std. -
So, 23.01. 2:20 keine Meldung -
So, 23.01. 2:00 0.1 l/m2 in 1 Std. Regen
So, 23.01. 1:30 0.0 l/m2 in 1 Std. -
So, 23.01. 1:00 0.0 l/m2 in 1 Std. Regen
So, 23.01. 0:30 0.0 l/m2 in 1 Std. -
Ortszeit Stärke Spitze Richtung
km/h Bft. km/h Grad Sektor
So, 23.01. 1:00 14 3 29 320° NW
Sa, 22.01. 19:00 11 2 18 310° NW
Sa, 22.01. 13:00 4 1 18 260° W
Sa, 22.01. 7:00 7 2 22 340° N
Sa, 22.01. 1:00 15 3 33 350° N
Fr, 21.01. 19:00 17 3 37 300° NW
Fr, 21.01. 13:00 18 3 36 320° NW
Fr, 21.01. 7:00 14 3 36 300° NW
Ortszeit Stärke Spitze Richtung
km/h Bft. km/h Grad Sektor
So, 23.01. 3:10 13 3 - 320° NW
So, 23.01. 3:00 11 2 25 310° NW
So, 23.01. 2:50 11 2 - 310° NW
So, 23.01. 2:40 13 3 - 310° NW
So, 23.01. 2:30 13 3 24 320° NW
So, 23.01. 2:20 13 3 - 320° NW
So, 23.01. 2:00 15 3 22 320° NW
So, 23.01. 1:30 13 3 22 330° NW
So, 23.01. 1:00 14 3 25 320° NW
So, 23.01. 0:30 14 3 25 330° NW
Ortszeit Untergrenze Bedeckung Gattung
total tief tief mittel hoch
So, 23.01. 1:00 180 m 8/8 8/8 - - -
Sa, 22.01. 19:00 150 m 8/8 8/8 - - -
Sa, 22.01. 13:00 1500 m 8/8 8/8 - - -
Sa, 22.01. 7:00 180 m 8/8 3/8 - - -
Sa, 22.01. 1:00 150 m 8/8 8/8 - - -
Fr, 21.01. 19:00 390 m 8/8 8/8 - - -
Fr, 21.01. 13:00 - 0/8 0/8 - - -
Fr, 21.01. 7:00 7500 m 3/8 0/8 - - -
Ortszeit Bedeckungsgrad in Achtel und Wolkenuntergrenze
So, 23.01. 3:10 7(150m) 8(240m)
So, 23.01. 3:00 7(150m) 8(240m)
So, 23.01. 2:50 7(150m) 8(240m)
So, 23.01. 2:40 8(180m)
So, 23.01. 2:30 7(150m)
So, 23.01. 2:20 7(150m)
So, 23.01. 2:00 7(150m) 7(420m)
So, 23.01. 1:30 8(150m)
So, 23.01. 1:00 7(180m) 8(300m)
So, 23.01. 0:30 8(210m)
Ortszeit Luftdruck NN (hPa) Tendenz (hPa in 3 Std.)
So, 23.01. 1:00 1030 + 0,3
Sa, 22.01. 19:00 1029 + 0,7
Sa, 22.01. 13:00 1029 + 1,0
Sa, 22.01. 7:00 1026 + 1,8
Sa, 22.01. 1:00 1023 + 0,5
Fr, 21.01. 19:00 1024 - 1,2
Fr, 21.01. 13:00 1026 + 0,3
Fr, 21.01. 7:00 1025 0,0
Ortszeit Luftdruck NN (hPa) Tendenz (hPa in 3 Std.)
So, 23.01. 3:10 1030 keine Meldung
So, 23.01. 3:00 1031 + 0,6
So, 23.01. 2:50 1031 keine Meldung
So, 23.01. 2:40 1030 keine Meldung
So, 23.01. 2:30 1030 + 0,5
So, 23.01. 2:20 1030 keine Meldung
So, 23.01. 2:00 1030 + 0,3
So, 23.01. 1:30 1030 + 0,4
So, 23.01. 1:00 1030 + 0,3
So, 23.01. 0:30 1030 + 0,5
Ortszeit Schneehöhe (cm)
So, 23.01. 1:00 0
Sa, 22.01. 19:00 0
Sa, 22.01. 13:00 0
Sa, 22.01. 7:00 0
Sa, 22.01. 1:00 0
Fr, 21.01. 19:00 0
Fr, 21.01. 13:00 0
Fr, 21.01. 7:00 0
Ortszeit Schneehöhe (cm)
So, 23.01. 3:10 0
So, 23.01. 3:00 0
So, 23.01. 2:50 0
So, 23.01. 2:40 0
So, 23.01. 2:30 0
So, 23.01. 2:20 0
So, 23.01. 2:00 0
So, 23.01. 1:30 0
So, 23.01. 1:00 0
So, 23.01. 0:30 0
Link zu dieser Seite / Seite empfehlen

Das Wetter in ...